Time;durP1;ratioP1;P1;durP2;ratioP2;P2;SDS_P1;SDS_P2;PMS_P1;PMS_P2;Temp;Humidity;BMP_temperature;BMP_pressure;BME280_temperature;BME280_humidity;BME280_pressure;Samples;Min_cycle;Max_cycle;Signal;HPM_P1;HPM_P2
2023/07/17 00:01:41;;;;;;;5.45;3.80;;;;;;;;;;6214700;23;20350;-75
2023/07/17 00:04:08;;;;;;;5.32;3.53;;;;;;;;;;6215268;23;20024;-76
2023/07/17 00:06:35;;;;;;;5.65;3.65;;;;;;;;;;6215334;23;20020;-75
2023/07/17 00:09:02;;;;;;;4.53;3.40;;;;;;;;;;6215983;23;20457;-77
2023/07/17 00:11:29;;;;;;;5.30;3.35;;;;;;;;;;6216434;23;20051;-77
2023/07/17 00:13:55;;;;;;;6.00;3.50;;;;;;;;;;6215976;23;20040;-75
2023/07/17 00:16:23;;;;;;;5.40;3.20;;;;;;;;;;6214710;23;20404;-75
2023/07/17 00:18:50;;;;;;;4.95;3.33;;;;;;;;;;6214687;23;20100;-76
2023/07/17 00:21:17;;;;;;;4.97;3.67;;;;;;;;;;6214322;23;20020;-76
2023/07/17 00:23:44;;;;;;;5.38;3.72;;;;;;;;;;6214064;23;20043;-74
2023/07/17 00:26:11;;;;;;;5.32;4.18;;;;;;;;;;6213872;23;20023;-75
2023/07/17 00:28:37;;;;;;;5.38;4.05;;;;;;;;;;6214473;23;20027;-75
2023/07/17 00:31:04;;;;;;;5.03;3.97;;;;;;;;;;6214267;23;20052;-77
2023/07/17 00:33:32;;;;;;;5.47;4.10;;;;;;;;;;6214496;23;20477;-76
2023/07/17 00:35:59;;;;;;;4.88;3.88;;;;;;;;;;6215197;23;20017;-76
2023/07/17 00:38:26;;;;;;;5.07;3.88;;;;;;;;;;6215500;23;20028;-76
2023/07/17 00:40:52;;;;;;;6.20;4.10;;;;;;;;;;6214580;23;20044;-76
2023/07/17 00:43:19;;;;;;;5.70;4.00;;;;;;;;;;6213359;23;20465;-76
2023/07/17 00:45:47;;;;;;;6.28;3.85;;;;;;;;;;6213894;23;20031;-76
2023/07/17 00:48:14;;;;;;;5.30;3.90;;;;;;;;;;6215587;23;20092;-77
2023/07/17 00:50:42;;;;;;;5.18;3.60;;;;;;;;;;6214978;23;20028;-75
2023/07/17 00:53:09;;;;;;;6.20;3.83;;;;;;;;;;6213473;23;20096;-76
2023/07/17 00:55:37;;;;;;;6.00;3.50;;;;;;;;;;6213637;23;20056;-76
2023/07/17 00:58:04;;;;;;;4.57;3.90;;;;;;;;;;6213865;23;20048;-75
2023/07/17 01:00:31;;;;;;;5.25;3.90;;;;;;;;;;6213553;23;20112;-76
2023/07/17 01:02:59;;;;;;;6.03;3.60;;;;;;;;;;6212904;23;20016;-75
2023/07/17 01:05:25;;;;;;;6.13;3.97;;;;;;;;;;6213794;23;20350;-74
2023/07/17 01:07:55;;;;;;;5.95;4.15;;;;;;;;;;6213942;23;20021;-76
2023/07/17 01:10:22;;;;;;;4.68;3.63;;;;;;;;;;6214044;23;20044;-76
2023/07/17 01:12:48;;;;;;;6.63;4.13;;;;;;;;;;6216560;23;20028;-77
2023/07/17 01:15:15;;;;;;;4.88;3.83;;;;;;;;;;6216140;23;20032;-77
2023/07/17 01:17:42;;;;;;;4.60;3.58;;;;;;;;;;6216075;23;20024;-77
2023/07/17 01:20:13;;;;;;;7.15;4.22;;;;;;;;;;6215790;23;20087;-76
2023/07/17 01:22:50;;;;;;;6.82;4.03;;;;;;;;;;6216099;23;20017;-76
2023/07/17 01:25:16;;;;;;;6.40;3.80;;;;;;;;;;6215344;23;20031;-76
2023/07/17 01:27:43;;;;;;;5.40;3.90;;;;;;;;;;6216267;23;20048;-76
2023/07/17 01:30:11;;;;;;;6.72;4.32;;;;;;;;;;6216506;23;20020;-77
2023/07/17 01:32:37;;;;;;;5.40;3.95;;;;;;;;;;6215858;23;20031;-77
2023/07/17 01:35:05;;;;;;;6.07;3.63;;;;;;;;;;6215839;23;20017;-77
2023/07/17 01:37:32;;;;;;;6.03;4.00;;;;;;;;;;6216057;23;20027;-76
2023/07/17 01:40:00;;;;;;;5.85;3.88;;;;;;;;;;6216443;23;20028;-77
2023/07/17 01:42:26;;;;;;;4.75;3.33;;;;;;;;;;6216327;23;20048;-76
2023/07/17 01:44:53;;;;;;;6.00;3.78;;;;;;;;;;6216096;23;20048;-77
2023/07/17 01:47:20;;;;;;;5.25;3.47;;;;;;;;;;6216019;23;20017;-78
2023/07/17 01:49:46;;;;;;;4.82;3.38;;;;;;;;;;6215600;23;20025;-76
2023/07/17 01:52:13;;;;;;;4.88;3.10;;;;;;;;;;6215499;23;20020;-76
2023/07/17 01:54:40;;;;;;;4.70;3.40;;;;;;;;;;6216752;23;20087;-78
2023/07/17 01:57:08;;;;;;;4.80;3.50;;;;;;;;;;6217522;23;20491;-77
2023/07/17 01:59:34;;;;;;;4.72;3.15;;;;;;;;;;6217579;23;20027;-75
2023/07/17 02:02:01;;;;;;;4.25;2.97;;;;;;;;;;6217971;23;20092;-75
2023/07/17 02:04:28;;;;;;;5.18;3.42;;;;;;;;;;6217768;23;20021;-75
2023/07/17 02:06:54;;;;;;;4.32;3.13;;;;;;;;;;6218583;23;20048;-76
2023/07/17 02:09:21;;;;;;;5.30;3.47;;;;;;;;;;6218190;23;20021;-75
2023/07/17 02:11:48;;;;;;;4.63;3.25;;;;;;;;;;6218201;23;20048;-75
2023/07/17 02:14:15;;;;;;;6.53;3.40;;;;;;;;;;6217706;23;20087;-76
2023/07/17 02:16:42;;;;;;;5.00;3.42;;;;;;;;;;6217843;23;20027;-77
2023/07/17 02:19:09;;;;;;;5.10;3.72;;;;;;;;;;6217845;23;20020;-76
2023/07/17 02:21:35;;;;;;;5.90;4.43;;;;;;;;;;6217579;23;20028;-77
2023/07/17 02:24:02;;;;;;;6.45;4.38;;;;;;;;;;6214225;23;20647;-80
2023/07/17 02:26:28;;;;;;;6.35;4.30;;;;;;;;;;6218325;23;20063;-78
2023/07/17 02:28:55;;;;;;;5.47;4.05;;;;;;;;;;6218544;23;20017;-80
2023/07/17 02:31:23;;;;;;;5.40;4.40;;;;;;;;;;6219769;23;20021;-80
2023/07/17 02:33:50;;;;;;;7.85;4.65;;;;;;;;;;6219022;23;20099;-80
2023/07/17 02:36:16;;;;;;;5.18;3.90;;;;;;;;;;6224654;23;20091;-80
2023/07/17 02:38:43;;;;;;;5.95;4.15;;;;;;;;;;6220106;23;20353;-80
2023/07/17 02:41:10;;;;;;;6.13;4.00;;;;;;;;;;6221040;23;20016;-80
2023/07/17 02:43:36;;;;;;;5.93;4.30;;;;;;;;;;6216951;23;20473;-77
2023/07/17 02:46:03;;;;;;;6.20;4.05;;;;;;;;;;6222271;23;20096;-80
2023/07/17 02:48:31;;;;;;;5.32;3.90;;;;;;;;;;6221101;23;20108;-80
2023/07/17 02:50:57;;;;;;;5.25;4.22;;;;;;;;;;6225115;23;20494;-79
2023/07/17 02:53:25;;;;;;;7.38;4.50;;;;;;;;;;6220432;23;20021;-80
2023/07/17 02:55:52;;;;;;;7.40;4.70;;;;;;;;;;6216914;23;20087;-77
2023/07/17 02:58:18;;;;;;;6.60;4.55;;;;;;;;;;6214815;23;20093;-77
2023/07/17 03:00:45;;;;;;;7.13;4.63;;;;;;;;;;6216510;23;20621;-77
2023/07/17 03:03:12;;;;;;;5.65;4.00;;;;;;;;;;6219017;23;20484;-78
2023/07/17 03:05:40;;;;;;;7.00;4.60;;;;;;;;;;6220357;23;20021;-78
2023/07/17 03:08:06;;;;;;;6.72;4.38;;;;;;;;;;6223965;23;20031;-79
2023/07/17 03:10:33;;;;;;;5.90;4.43;;;;;;;;;;6221959;23;20072;-79
2023/07/17 03:13:00;;;;;;;7.15;4.78;;;;;;;;;;6220635;23;20348;-78
2023/07/17 03:15:26;;;;;;;6.30;4.72;;;;;;;;;;6220367;23;20461;-79
2023/07/17 03:17:53;;;;;;;5.78;4.68;;;;;;;;;;6220238;23;20488;-79
2023/07/17 03:20:20;;;;;;;5.63;4.55;;;;;;;;;;6218400;23;20020;-79
2023/07/17 03:22:48;;;;;;;5.97;4.40;;;;;;;;;;6220692;23;20023;-80
2023/07/17 03:25:15;;;;;;;6.28;4.35;;;;;;;;;;6219347;23;20028;-79
2023/07/17 03:27:41;;;;;;;6.07;4.22;;;;;;;;;;6219018;23;20445;-79
2023/07/17 03:30:09;;;;;;;6.35;4.72;;;;;;;;;;6222450;23;20115;-79
2023/07/17 03:32:36;;;;;;;6.70;4.60;;;;;;;;;;6224201;23;20078;-78
2023/07/17 03:35:03;;;;;;;6.30;4.30;;;;;;;;;;6224189;23;20027;-78
2023/07/17 03:37:30;;;;;;;6.38;4.20;;;;;;;;;;6230038;23;20072;-79
2023/07/17 03:39:58;;;;;;;6.32;4.88;;;;;;;;;;6230043;23;20055;-78
2023/07/17 03:42:25;;;;;;;8.05;4.97;;;;;;;;;;6233006;23;20393;-79
2023/07/17 03:44:52;;;;;;;6.32;4.40;;;;;;;;;;6232797;23;20048;-80
2023/07/17 03:47:18;;;;;;;7.05;4.18;;;;;;;;;;6226308;23;20059;-79
2023/07/17 03:49:45;;;;;;;5.93;4.25;;;;;;;;;;6217173;23;20059;-77
2023/07/17 03:52:11;;;;;;;5.65;4.20;;;;;;;;;;6216175;23;20052;-77
2023/07/17 03:54:38;;;;;;;5.43;4.03;;;;;;;;;;6215132;23;20055;-77
2023/07/17 03:57:06;;;;;;;6.18;4.47;;;;;;;;;;6216698;23;20032;-78
2023/07/17 03:59:47;;;;;;;6.75;4.65;;;;;;;;;;6215846;23;20020;-78
2023/07/17 04:02:14;;;;;;;6.95;4.53;;;;;;;;;;6216507;23;20020;-78
2023/07/17 04:04:41;;;;;;;7.05;4.43;;;;;;;;;;6220150;23;20430;-78
2023/07/17 04:07:07;;;;;;;6.15;4.47;;;;;;;;;;6221293;23;20028;-79
2023/07/17 04:09:34;;;;;;;5.88;3.90;;;;;;;;;;6222042;23;20040;-78
2023/07/17 04:12:03;;;;;;;5.93;4.43;;;;;;;;;;6222280;23;20043;-78
2023/07/17 04:14:32;;;;;;;6.97;4.65;;;;;;;;;;6221177;23;20537;-79
2023/07/17 04:16:59;;;;;;;5.78;4.15;;;;;;;;;;6218987;23;20039;-79
2023/07/17 04:19:25;;;;;;;6.80;4.63;;;;;;;;;;6219513;23;20032;-78
2023/07/17 04:21:52;;;;;;;9.02;4.95;;;;;;;;;;6219089;23;20043;-79
2023/07/17 04:24:19;;;;;;;7.07;5.03;;;;;;;;;;6218393;23;20072;-79
2023/07/17 04:26:45;;;;;;;6.70;4.82;;;;;;;;;;6218343;23;20085;-78
2023/07/17 04:29:12;;;;;;;6.60;4.68;;;;;;;;;;6218718;23;20491;-79
2023/07/17 04:31:40;;;;;;;8.10;4.88;;;;;;;;;;6218941;23;20040;-79
2023/07/17 04:34:07;;;;;;;7.18;5.28;;;;;;;;;;6218707;23;20020;-79
2023/07/17 04:36:33;;;;;;;7.35;5.05;;;;;;;;;;6219434;23;20027;-79
2023/07/17 04:39:00;;;;;;;7.85;5.70;;;;;;;;;;6218836;23;20048;-79
2023/07/17 04:41:26;;;;;;;7.43;5.50;;;;;;;;;;6219033;23;20353;-78
2023/07/17 04:43:53;;;;;;;7.20;5.40;;;;;;;;;;6219270;23;20100;-79
2023/07/17 04:46:20;;;;;;;6.72;5.10;;;;;;;;;;6220268;23;20017;-78
2023/07/17 04:48:48;;;;;;;9.45;5.25;;;;;;;;;;6219088;23;20092;-79
2023/07/17 04:51:14;;;;;;;8.27;5.72;;;;;;;;;;6218094;23;20473;-79
2023/07/17 04:53:41;;;;;;;9.82;5.20;;;;;;;;;;6217918;23;20023;-79
2023/07/17 04:56:08;;;;;;;7.28;5.15;;;;;;;;;;6218248;23;20027;-79
2023/07/17 04:58:34;;;;;;;8.00;5.43;;;;;;;;;;6217961;23;20048;-78
2023/07/17 05:01:02;;;;;;;7.22;4.95;;;;;;;;;;6217337;23;20059;-79
2023/07/17 05:03:29;;;;;;;6.97;5.22;;;;;;;;;;6219144;23;20021;-78
2023/07/17 05:05:57;;;;;;;8.02;5.13;;;;;;;;;;6218783;23;20035;-78
2023/07/17 05:08:26;;;;;;;8.57;5.82;;;;;;;;;;6218584;23;20071;-78
2023/07/17 05:10:56;;;;;;;7.63;5.30;;;;;;;;;;6218051;23;20075;-78
2023/07/17 05:13:23;;;;;;;9.07;5.82;;;;;;;;;;6217440;23;20021;-78
2023/07/17 05:15:50;;;;;;;8.38;5.97;;;;;;;;;;6217722;23;20012;-78
2023/07/17 05:18:17;;;;;;;8.75;5.65;;;;;;;;;;6218038;23;20032;-78
2023/07/17 05:20:44;;;;;;;6.97;5.53;;;;;;;;;;6219549;23;20025;-79
2023/07/17 05:23:13;;;;;;;8.20;5.55;;;;;;;;;;6219646;23;20025;-79
2023/07/17 05:25:40;;;;;;;7.22;5.68;;;;;;;;;;6226206;23;20040;-79
2023/07/17 05:28:07;;;;;;;10.77;6.70;;;;;;;;;;6217533;23;20021;-79
2023/07/17 05:30:34;;;;;;;7.20;5.85;;;;;;;;;;6219364;23;20020;-78
2023/07/17 05:33:00;;;;;;;8.68;6.05;;;;;;;;;;6217489;23;20103;-78
2023/07/17 05:35:27;;;;;;;8.85;6.35;;;;;;;;;;6217926;23;20084;-79
2023/07/17 05:37:54;;;;;;;8.30;6.10;;;;;;;;;;6218328;23;20029;-79
2023/07/17 05:40:22;;;;;;;9.40;6.38;;;;;;;;;;6218123;23;20017;-79
2023/07/17 05:42:48;;;;;;;7.75;5.93;;;;;;;;;;6226024;23;20020;-78
2023/07/17 05:45:15;;;;;;;7.78;5.43;;;;;;;;;;6222328;23;20101;-79
2023/07/17 05:47:42;;;;;;;7.80;5.35;;;;;;;;;;6218292;23;20027;-79
2023/07/17 05:50:11;;;;;;;7.30;5.05;;;;;;;;;;6218693;23;20021;-78
2023/07/17 05:52:37;;;;;;;8.85;4.88;;;;;;;;;;6217836;23;20021;-79
2023/07/17 05:55:05;;;;;;;7.30;4.85;;;;;;;;;;6217761;23;20039;-80
2023/07/17 05:57:33;;;;;;;7.85;5.28;;;;;;;;;;6218430;23;20028;-79
2023/07/17 06:00:00;;;;;;;8.32;4.50;;;;;;;;;;6218161;23;20044;-79
2023/07/17 06:02:26;;;;;;;8.80;4.22;;;;;;;;;;6218690;23;20060;-79
2023/07/17 06:04:53;;;;;;;6.15;4.38;;;;;;;;;;6218055;23;20027;-79
2023/07/17 06:07:19;;;;;;;5.80;3.42;;;;;;;;;;6219226;23;20044;-79
2023/07/17 06:09:46;;;;;;;7.40;3.97;;;;;;;;;;6217450;23;20512;-80
2023/07/17 06:12:13;;;;;;;6.43;3.45;;;;;;;;;;6218255;23;20072;-79
2023/07/17 06:14:41;;;;;;;5.72;3.80;;;;;;;;;;6218254;23;20051;-79
2023/07/17 06:17:08;;;;;;;6.32;3.53;;;;;;;;;;6218448;23;20021;-80
2023/07/17 06:19:34;;;;;;;5.20;3.15;;;;;;;;;;6218570;23;20091;-80
2023/07/17 06:22:01;;;;;;;6.70;3.00;;;;;;;;;;6218745;23;20099;-79
2023/07/17 06:24:27;;;;;;;5.32;3.65;;;;;;;;;;6217859;23;20063;-79
2023/07/17 06:26:54;;;;;;;5.70;3.35;;;;;;;;;;6218452;23;20472;-79
2023/07/17 06:29:21;;;;;;;7.07;4.95;;;;;;;;;;6217979;23;20056;-79
2023/07/17 06:31:49;;;;;;;6.38;3.70;;;;;;;;;;6218287;23;20052;-79
2023/07/17 06:34:16;;;;;;;6.43;3.65;;;;;;;;;;6218171;23;20020;-79
2023/07/17 06:36:42;;;;;;;7.13;3.65;;;;;;;;;;6218864;23;20028;-80
2023/07/17 06:39:09;;;;;;;6.75;4.22;;;;;;;;;;6219452;23;20048;-79
2023/07/17 06:41:35;;;;;;;5.80;3.63;;;;;;;;;;6218892;23;20023;-79
2023/07/17 06:44:02;;;;;;;7.35;4.00;;;;;;;;;;6219690;23;20023;-79
2023/07/17 06:46:29;;;;;;;8.57;4.75;;;;;;;;;;6216658;23;20047;-78
2023/07/17 06:48:57;;;;;;;6.57;3.55;;;;;;;;;;6216317;23;20048;-78
2023/07/17 06:51:24;;;;;;;7.75;4.15;;;;;;;;;;6216814;23;20020;-78
2023/07/17 06:53:50;;;;;;;7.45;3.55;;;;;;;;;;6216382;23;20020;-78
2023/07/17 06:56:17;;;;;;;7.57;3.55;;;;;;;;;;6219712;23;20091;-78
2023/07/17 06:58:43;;;;;;;6.07;3.50;;;;;;;;;;6216468;23;20489;-78
2023/07/17 07:01:11;;;;;;;7.10;3.30;;;;;;;;;;6216677;23;20048;-78
2023/07/17 07:03:38;;;;;;;7.15;3.53;;;;;;;;;;6216020;23;20024;-77
2023/07/17 07:06:06;;;;;;;6.40;3.38;;;;;;;;;;6216172;23;20023;-77
2023/07/17 07:08:33;;;;;;;4.93;3.17;;;;;;;;;;6216177;23;20103;-78
2023/07/17 07:11:01;;;;;;;9.82;3.88;;;;;;;;;;6216079;23;20020;-77
2023/07/17 07:13:28;;;;;;;7.13;3.70;;;;;;;;;;6216069;23;20028;-79
2023/07/17 07:15:55;;;;;;;7.90;3.25;;;;;;;;;;6215640;23;20056;-78
2023/07/17 07:18:22;;;;;;;7.38;3.88;;;;;;;;;;6215446;23;20037;-79
2023/07/17 07:20:51;;;;;;;6.75;3.78;;;;;;;;;;6213532;23;20027;-77
2023/07/17 07:23:20;;;;;;;7.05;3.60;;;;;;;;;;6213670;23;20040;-78
2023/07/17 07:25:47;;;;;;;6.95;3.28;;;;;;;;;;6214023;23;20024;-78
2023/07/17 07:28:14;;;;;;;6.80;3.50;;;;;;;;;;6214291;23;20044;-78
2023/07/17 07:30:40;;;;;;;7.00;3.83;;;;;;;;;;6214124;23;20100;-77
2023/07/17 07:33:07;;;;;;;6.25;3.50;;;;;;;;;;6213866;23;20078;-79
2023/07/17 07:35:34;;;;;;;5.75;3.38;;;;;;;;;;6216415;23;20020;-79
2023/07/17 07:38:00;;;;;;;6.88;3.35;;;;;;;;;;6216933;23;20027;-79
2023/07/17 07:40:29;;;;;;;6.45;3.17;;;;;;;;;;6216327;23;20099;-79
2023/07/17 07:42:55;;;;;;;5.32;3.17;;;;;;;;;;6216199;23;20335;-78
2023/07/17 07:45:22;;;;;;;6.45;3.20;;;;;;;;;;6216954;23;20021;-79
2023/07/17 07:47:49;;;;;;;8.43;3.35;;;;;;;;;;6216823;23;20027;-78
2023/07/17 07:50:15;;;;;;;6.47;3.58;;;;;;;;;;6213794;23;20071;-78
2023/07/17 07:52:42;;;;;;;6.05;3.30;;;;;;;;;;6213076;23;20099;-78
2023/07/17 07:55:09;;;;;;;6.20;3.70;;;;;;;;;;6214799;23;20048;-78
2023/07/17 07:57:37;;;;;;;6.35;3.63;;;;;;;;;;6215582;23;20529;-78
2023/07/17 08:00:05;;;;;;;7.93;3.67;;;;;;;;;;6214857;23;20025;-78
2023/07/17 08:02:32;;;;;;;6.05;3.60;;;;;;;;;;6217093;23;20342;-79
2023/07/17 08:05:03;;;;;;;6.80;3.47;;;;;;;;;;6214786;23;20452;-78
2023/07/17 08:07:30;;;;;;;4.60;3.15;;;;;;;;;;6211147;23;20027;-78
2023/07/17 08:09:56;;;;;;;5.13;3.10;;;;;;;;;;6212207;23;20016;-77
2023/07/17 08:12:23;;;;;;;5.88;3.05;;;;;;;;;;6211430;23;20517;-77
2023/07/17 08:14:53;;;;;;;6.72;3.58;;;;;;;;;;6211174;23;20017;-77
2023/07/17 08:17:19;;;;;;;7.25;3.38;;;;;;;;;;6211664;23;20071;-77
2023/07/17 08:19:46;;;;;;;5.85;3.55;;;;;;;;;;6211521;23;20032;-77
2023/07/17 08:22:13;;;;;;;6.30;3.97;;;;;;;;;;6211322;23;20017;-78
2023/07/17 08:24:40;;;;;;;6.25;3.15;;;;;;;;;;6211148;23;20023;-77
2023/07/17 08:27:07;;;;;;;5.38;3.40;;;;;;;;;;6214632;23;20029;-77
2023/07/17 08:29:34;;;;;;;5.32;3.20;;;;;;;;;;6214691;23;20024;-77
2023/07/17 08:32:02;;;;;;;7.45;3.75;;;;;;;;;;6213422;23;20078;-77
2023/07/17 08:34:29;;;;;;;7.10;3.72;;;;;;;;;;6214201;23;20025;-75
2023/07/17 08:36:56;;;;;;;7.38;3.70;;;;;;;;;;6215334;23;20028;-79
2023/07/17 08:39:23;;;;;;;6.03;3.38;;;;;;;;;;6218095;23;20021;-77
2023/07/17 08:41:50;;;;;;;5.93;3.90;;;;;;;;;;6217956;23;20020;-80
2023/07/17 08:44:17;;;;;;;7.07;3.60;;;;;;;;;;6216102;23;20645;-77
2023/07/17 08:46:46;;;;;;;5.43;3.85;;;;;;;;;;6215721;23;20020;-78
2023/07/17 08:49:16;;;;;;;6.32;3.53;;;;;;;;;;6214883;23;20585;-77
2023/07/17 08:51:43;;;;;;;6.82;3.25;;;;;;;;;;6214679;23;20029;-77
2023/07/17 08:54:12;;;;;;;5.20;2.90;;;;;;;;;;6213975;23;20021;-76
2023/07/17 08:56:42;;;;;;;5.57;3.70;;;;;;;;;;6211864;23;20112;-74
2023/07/17 08:59:09;;;;;;;7.38;4.13;;;;;;;;;;6211932;23;20028;-74
2023/07/17 09:01:37;;;;;;;5.72;3.70;;;;;;;;;;6211652;23;20025;-75
2023/07/17 09:04:05;;;;;;;7.45;3.20;;;;;;;;;;6214714;23;20066;-74
2023/07/17 09:06:35;;;;;;;6.75;3.17;;;;;;;;;;6215266;23;20024;-76
2023/07/17 09:09:02;;;;;;;6.82;3.42;;;;;;;;;;6215215;23;20543;-75
2023/07/17 09:11:29;;;;;;;6.75;3.78;;;;;;;;;;6215548;23;20577;-74
2023/07/17 09:13:56;;;;;;;6.22;4.00;;;;;;;;;;6215590;23;20373;-75
2023/07/17 09:16:24;;;;;;;9.45;4.13;;;;;;;;;;6215121;23;20690;-73
2023/07/17 09:18:53;;;;;;;5.10;3.50;;;;;;;;;;6214685;23;20435;-76
2023/07/17 09:21:21;;;;;;;6.28;3.60;;;;;;;;;;6214940;23;20472;-71
2023/07/17 09:23:51;;;;;;;6.35;3.80;;;;;;;;;;6215348;23;20028;-73
2023/07/17 09:26:19;;;;;;;8.10;3.80;;;;;;;;;;6215791;23;20024;-74
2023/07/17 09:28:48;;;;;;;6.80;3.97;;;;;;;;;;6215021;23;20016;-73
2023/07/17 09:31:16;;;;;;;7.63;4.25;;;;;;;;;;6214928;23;20443;-74
2023/07/17 09:33:43;;;;;;;6.28;3.97;;;;;;;;;;6215336;23;20431;-74
2023/07/17 09:36:11;;;;;;;7.35;3.90;;;;;;;;;;6215133;23;20024;-75
2023/07/17 09:38:38;;;;;;;6.95;3.50;;;;;;;;;;6214685;23;20451;-75
2023/07/17 09:41:23;;;;;;;7.20;4.13;;;;;;;;;;6215224;23;20021;-75
2023/07/17 09:43:57;;;;;;;5.75;3.17;;;;;;;;;;6214979;23;20035;-73
2023/07/17 09:46:29;;;;;;;5.55;3.80;;;;;;;;;;6215298;23;20020;-74
2023/07/17 09:48:57;;;;;;;6.43;3.35;;;;;;;;;;6214674;23;20017;-75
2023/07/17 09:51:24;;;;;;;4.68;3.28;;;;;;;;;;6215028;23;20035;-75
2023/07/17 09:53:52;;;;;;;4.55;3.58;;;;;;;;;;6214053;23;20483;-72
2023/07/17 09:56:21;;;;;;;6.10;4.03;;;;;;;;;;6214653;23;20021;-74
2023/07/17 09:58:50;;;;;;;6.05;3.80;;;;;;;;;;6214599;23;20030;-74
2023/07/17 10:01:19;;;;;;;6.60;3.50;;;;;;;;;;6214857;23;20428;-74
2023/07/17 10:03:48;;;;;;;5.65;3.70;;;;;;;;;;6215224;23;20024;-72
2023/07/17 10:06:16;;;;;;;5.50;3.63;;;;;;;;;;6215099;23;20028;-72
2023/07/17 10:08:47;;;;;;;6.25;3.90;;;;;;;;;;6214826;23;20666;-73
2023/07/17 10:11:17;;;;;;;6.60;3.58;;;;;;;;;;6214922;23;20067;-72
2023/07/17 10:13:48;;;;;;;6.03;3.53;;;;;;;;;;6214421;23;20368;-72
2023/07/17 10:16:17;;;;;;;5.05;3.20;;;;;;;;;;6213000;23;20024;-74
2023/07/17 10:18:49;;;;;;;5.68;3.40;;;;;;;;;;6213325;23;20108;-72
2023/07/17 10:21:17;;;;;;;7.38;3.78;;;;;;;;;;6212993;23;20079;-71
2023/07/17 10:23:45;;;;;;;6.20;4.30;;;;;;;;;;6212828;23;20071;-73
2023/07/17 10:26:14;;;;;;;7.40;3.75;;;;;;;;;;6213209;23;20475;-72
2023/07/17 10:28:42;;;;;;;6.20;3.42;;;;;;;;;;6212853;23;20055;-72
2023/07/17 10:31:12;;;;;;;7.45;3.38;;;;;;;;;;6213544;23;20028;-70
2023/07/17 10:33:39;;;;;;;5.82;3.92;;;;;;;;;;6212382;23;20020;-70
2023/07/17 10:36:06;;;;;;;7.00;4.50;;;;;;;;;;6212910;23;20016;-79
2023/07/17 10:38:36;;;;;;;6.18;4.20;;;;;;;;;;6212481;23;20384;-74
2023/07/17 10:41:05;;;;;;;5.72;3.42;;;;;;;;;;6212462;23;20099;-74
2023/07/17 10:43:34;;;;;;;5.68;3.33;;;;;;;;;;6212377;23;20448;-74
2023/07/17 10:46:07;;;;;;;5.63;3.70;;;;;;;;;;6212858;23;20028;-74
2023/07/17 10:48:36;;;;;;;6.78;3.60;;;;;;;;;;6212668;23;20025;-74
2023/07/17 10:51:03;;;;;;;6.88;3.58;;;;;;;;;;6212842;23;20028;-74
2023/07/17 10:53:34;;;;;;;5.82;3.30;;;;;;;;;;6212131;23;20056;-76
2023/07/17 10:56:01;;;;;;;6.80;3.42;;;;;;;;;;6212870;23;20020;-75
2023/07/17 10:58:27;;;;;;;5.85;3.55;;;;;;;;;;6212998;23;20034;-73
2023/07/17 11:00:55;;;;;;;5.53;3.67;;;;;;;;;;6213002;23;20067;-74
2023/07/17 11:03:26;;;;;;;5.63;3.80;;;;;;;;;;6212967;23;20440;-75
2023/07/17 11:05:56;;;;;;;6.20;3.17;;;;;;;;;;6213146;23;20029;-74
2023/07/17 11:08:26;;;;;;;5.90;3.50;;;;;;;;;;6213054;23;20099;-76
2023/07/17 11:10:52;;;;;;;;;;;;;;;;;;6212763;23;20021;-74
2023/07/17 11:13:19;;;;;;;6.55;3.70;;;;;;;;;;6211973;23;19939;-72
2023/07/17 11:15:46;;;;;;;6.03;3.65;;;;;;;;;;6212695;23;20103;-73
2023/07/17 11:18:13;;;;;;;6.15;3.15;;;;;;;;;;6213241;23;20254;-73
2023/07/17 11:20:40;;;;;;;5.97;3.67;;;;;;;;;;6213237;23;20029;-76
2023/07/17 11:23:11;;;;;;;5.85;3.60;;;;;;;;;;6216260;23;20020;-77
2023/07/17 11:25:39;;;;;;;5.88;3.50;;;;;;;;;;6213727;23;20020;-75
2023/07/17 11:28:06;;;;;;;7.00;3.90;;;;;;;;;;6214258;23;20047;-78
2023/07/17 11:30:33;;;;;;;8.52;4.80;;;;;;;;;;6217646;23;20028;-77
2023/07/17 11:33:05;;;;;;;6.25;3.60;;;;;;;;;;6216918;23;20047;-77
2023/07/17 11:35:43;;;;;;;6.32;3.75;;;;;;;;;;6216937;23;20341;-77
2023/07/17 11:38:14;;;;;;;6.18;4.20;;;;;;;;;;6213796;23;20044;-77
2023/07/17 11:41:06;;;;;;;6.68;4.00;;;;;;;;;;6215174;23;20024;-76
2023/07/17 11:43:35;;;;;;;4.90;3.47;;;;;;;;;;6180111;23;20035;-77
2023/07/17 11:46:04;;;;;;;8.00;4.53;;;;;;;;;;6214960;23;20055;-76
2023/07/17 11:48:31;;;;;;;9.10;3.55;;;;;;;;;;6215270;23;20093;-76
2023/07/17 11:50:59;;;;;;;6.10;3.53;;;;;;;;;;6216793;23;20047;-78
2023/07/17 11:53:30;;;;;;;5.85;3.88;;;;;;;;;;6218643;23;20028;-76
2023/07/17 11:55:59;;;;;;;5.38;3.80;;;;;;;;;;6215489;23;20020;-76
2023/07/17 11:58:29;;;;;;;7.22;3.63;;;;;;;;;;6215414;23;20095;-76
2023/07/17 12:00:59;;;;;;;12.77;4.43;;;;;;;;;;6214083;23;20021;-74
2023/07/17 12:03:26;;;;;;;7.95;4.25;;;;;;;;;;6216167;23;20108;-76
2023/07/17 12:05:53;;;;;;;9.55;5.20;;;;;;;;;;6212897;23;20027;-75
2023/07/17 12:08:20;;;;;;;6.05;3.70;;;;;;;;;;6213545;23;20497;-75
2023/07/17 12:10:48;;;;;;;5.20;3.97;;;;;;;;;;6214679;23;20339;-77
2023/07/17 12:13:15;;;;;;;8.20;4.72;;;;;;;;;;6214400;23;20464;-76
2023/07/17 12:15:42;;;;;;;5.55;3.67;;;;;;;;;;6215283;23;20024;-76
2023/07/17 12:18:09;;;;;;;5.50;3.40;;;;;;;;;;6213546;23;20024;-76
2023/07/17 12:20:36;;;;;;;6.35;3.95;;;;;;;;;;6213675;23;20074;-76
2023/07/17 12:23:03;;;;;;;6.32;4.13;;;;;;;;;;6213615;23;20020;-75
2023/07/17 12:25:31;;;;;;;4.72;3.20;;;;;;;;;;6213362;23;20464;-76
2023/07/17 12:28:01;;;;;;;7.15;3.72;;;;;;;;;;6213594;23;20469;-76
2023/07/17 12:30:29;;;;;;;6.13;3.80;;;;;;;;;;6213009;23;20025;-77
2023/07/17 12:32:58;;;;;;;6.90;4.00;;;;;;;;;;6213128;23;20402;-76
2023/07/17 12:35:25;;;;;;;4.55;3.22;;;;;;;;;;6213944;23;20097;-75
2023/07/17 12:37:53;;;;;;;5.75;3.72;;;;;;;;;;6213445;23;20325;-76
2023/07/17 12:40:20;;;;;;;5.82;3.70;;;;;;;;;;6213598;23;20455;-75
2023/07/17 12:42:47;;;;;;;5.93;3.67;;;;;;;;;;6212376;23;20032;-76
2023/07/17 12:45:15;;;;;;;6.60;4.05;;;;;;;;;;6212505;23;20079;-76
2023/07/17 12:47:42;;;;;;;4.88;3.38;;;;;;;;;;6215090;23;20352;-76
2023/07/17 12:50:10;;;;;;;6.68;3.97;;;;;;;;;;6215226;23;20028;-75
2023/07/17 12:52:37;;;;;;;6.85;3.88;;;;;;;;;;6218036;23;20036;-78
2023/07/17 12:55:04;;;;;;;8.50;4.00;;;;;;;;;;6216871;23;20016;-74
2023/07/17 12:57:31;;;;;;;6.00;3.90;;;;;;;;;;6215228;23;20021;-75
2023/07/17 12:59:58;;;;;;;7.05;3.92;;;;;;;;;;6212739;23;20017;-76
2023/07/17 13:02:26;;;;;;;6.03;4.10;;;;;;;;;;6213048;23;20020;-73
2023/07/17 13:04:53;;;;;;;7.25;3.97;;;;;;;;;;6213025;23;20671;-74
2023/07/17 13:07:20;;;;;;;7.03;3.97;;;;;;;;;;6213335;23;20071;-74
2023/07/17 13:09:47;;;;;;;6.22;3.72;;;;;;;;;;6212996;23;20025;-73
2023/07/17 13:12:14;;;;;;;5.55;3.50;;;;;;;;;;6212677;23;20518;-74
2023/07/17 13:14:41;;;;;;;6.20;3.83;;;;;;;;;;6214446;23;20020;-74
2023/07/17 13:17:08;;;;;;;5.88;3.70;;;;;;;;;;6213451;23;20021;-76
2023/07/17 13:19:37;;;;;;;6.68;4.03;;;;;;;;;;6212286;23;20020;-72
2023/07/17 13:22:04;;;;;;;6.50;4.45;;;;;;;;;;6212619;23;20031;-72
2023/07/17 13:24:31;;;;;;;11.30;6.47;;;;;;;;;;6212233;23;20086;-74
2023/07/17 13:27:00;;;;;;;5.65;3.83;;;;;;;;;;6214067;23;20059;-76
2023/07/17 13:29:27;;;;;;;6.75;4.18;;;;;;;;;;6213079;23;20020;-75
2023/07/17 13:31:58;;;;;;;5.50;3.65;;;;;;;;;;6213689;23;20021;-77
2023/07/17 13:34:26;;;;;;;5.53;3.92;;;;;;;;;;6216038;23;20021;-76
2023/07/17 13:36:55;;;;;;;6.32;4.32;;;;;;;;;;6213684;23;20021;-74
2023/07/17 13:39:22;;;;;;;5.63;3.63;;;;;;;;;;6213672;23;20335;-76
2023/07/17 13:41:49;;;;;;;5.05;3.60;;;;;;;;;;6213702;23;20025;-76
2023/07/17 13:44:17;;;;;;;5.85;3.50;;;;;;;;;;6213110;23;20075;-76
2023/07/17 13:46:47;;;;;;;4.88;3.65;;;;;;;;;;6214128;23;20399;-75
2023/07/17 13:49:14;;;;;;;5.63;3.53;;;;;;;;;;6213689;23;20496;-76
2023/07/17 13:51:41;;;;;;;6.07;3.65;;;;;;;;;;6215226;23;20106;-75
2023/07/17 13:54:10;;;;;;;5.75;3.50;;;;;;;;;;6214312;23;20024;-75
2023/07/17 13:56:37;;;;;;;5.18;3.70;;;;;;;;;;6215380;23;20025;-75
2023/07/17 13:59:06;;;;;;;8.20;3.90;;;;;;;;;;6214298;23;20025;-76
2023/07/17 14:01:32;;;;;;;7.18;4.03;;;;;;;;;;6214344;23;20063;-75
2023/07/17 14:03:59;;;;;;;6.85;3.92;;;;;;;;;;6214465;23;20025;-75
2023/07/17 14:06:26;;;;;;;5.70;3.50;;;;;;;;;;6214979;23;20021;-76
2023/07/17 14:08:53;;;;;;;6.18;3.90;;;;;;;;;;6215060;23;20467;-76
2023/07/17 14:11:21;;;;;;;5.50;3.80;;;;;;;;;;6218042;23;20081;-75
2023/07/17 14:13:48;;;;;;;6.70;4.07;;;;;;;;;;6214176;23;20420;-76
2023/07/17 14:16:15;;;;;;;4.68;3.70;;;;;;;;;;6214875;23;20025;-75
2023/07/17 14:18:42;;;;;;;6.55;3.72;;;;;;;;;;6215132;23;20042;-76
2023/07/17 14:21:09;;;;;;;5.43;3.60;;;;;;;;;;6215037;23;20055;-76
2023/07/17 14:23:37;;;;;;;5.78;3.83;;;;;;;;;;6216830;23;20451;-76
2023/07/17 14:26:08;;;;;;;6.22;3.70;;;;;;;;;;6220083;23;20016;-77
2023/07/17 14:28:38;;;;;;;6.28;3.88;;;;;;;;;;6220504;23;20360;-75
2023/07/17 14:31:06;;;;;;;;;;;;;;;;;;6218829;23;20557;-77
2023/07/17 14:33:35;;;;;;;5.57;3.40;;;;;;;;;;6218456;23;19919;-76
2023/07/17 14:36:02;;;;;;;5.32;3.72;;;;;;;;;;6218163;23;20016;-77
2023/07/17 14:38:29;;;;;;;7.03;3.90;;;;;;;;;;6218089;23;20031;-75
2023/07/17 14:40:56;;;;;;;5.10;3.55;;;;;;;;;;6218564;23;20734;-76
2023/07/17 14:43:23;;;;;;;7.28;4.00;;;;;;;;;;6214979;23;20087;-76
2023/07/17 14:45:51;;;;;;;6.93;3.53;;;;;;;;;;6214290;23;20024;-75